Time;durP1;ratioP1;P1;durP2;ratioP2;P2;SDS_P1;SDS_P2;PMS_P1;PMS_P2;Temp;Humidity;BMP_temperature;BMP_pressure;BME280_temperature;BME280_humidity;BME280_pressure;Samples;Min_cycle;Max_cycle;Signal;HPM_P1;HPM_P2
2022/04/19 00:00:25;;;;;;;0.00;0.00;;;11.70;57.10;;;;;;4152611;28;20133;-69
2022/04/19 00:02:47;;;;;;;0.00;0.00;;;11.60;57.10;;;;;;4166226;28;20420;-71
2022/04/19 00:05:10;;;;;;;0.00;0.00;;;11.60;57.30;;;;;;4166348;28;20041;-72
2022/04/19 00:07:34;;;;;;;0.00;0.00;;;11.60;57.40;;;;;;4166706;28;20072;-71
2022/04/19 00:09:56;;;;;;;0.00;0.00;;;11.60;57.50;;;;;;4166575;28;20042;-71
2022/04/19 00:12:22;;;;;;;0.00;0.00;;;11.60;57.60;;;;;;4152973;28;20050;-72
2022/04/19 00:14:44;;;;;;;0.00;0.00;;;11.70;57.50;;;;;;4152355;28;20053;-71
2022/04/19 00:17:08;;;;;;;0.00;0.00;;;11.60;57.60;;;;;;4152511;28;20042;-71
2022/04/19 00:19:36;;;;;;;0.00;0.00;;;11.60;57.60;;;;;;4152713;28;20038;-71
2022/04/19 00:22:00;;;;;;;0.00;0.00;;;11.60;57.60;;;;;;4152776;28;20041;-69
2022/04/19 00:24:22;;;;;;;0.00;0.00;;;11.60;57.70;;;;;;4166197;28;20072;-71
2022/04/19 00:26:44;;;;;;;0.00;0.00;;;11.50;57.80;;;;;;4152206;28;20108;-69
2022/04/19 00:29:08;;;;;;;0.00;0.00;;;11.50;58.10;;;;;;4152672;28;20049;-71
2022/04/19 00:31:33;;;;;;;0.00;0.00;;;11.40;58.50;;;;;;4166253;28;20069;-71
2022/04/19 00:33:58;;;;;;;0.00;0.00;;;11.30;58.70;;;;;;4153118;28;20084;-68
2022/04/19 00:36:22;;;;;;;0.00;0.00;;;11.30;58.90;;;;;;4153369;28;20141;-70
2022/04/19 00:38:44;;;;;;;0.00;0.00;;;11.30;59.10;;;;;;4152850;28;20049;-68
2022/04/19 00:41:06;;;;;;;0.00;0.00;;;11.30;59.20;;;;;;4153160;28;20095;-71
2022/04/19 00:43:28;;;;;;;0.00;0.00;;;11.30;59.20;;;;;;4154571;28;20080;-70
2022/04/19 00:45:53;;;;;;;0.00;0.00;;;11.30;59.30;;;;;;4156939;28;20038;-71
2022/04/19 00:48:15;;;;;;;0.00;0.00;;;11.20;59.50;;;;;;4156742;28;20092;-71
2022/04/19 00:50:39;;;;;;;0.00;0.00;;;11.20;59.60;;;;;;4155794;28;20115;-66
2022/04/19 00:53:06;;;;;;;0.00;0.00;;;11.20;60.20;;;;;;4155394;28;20489;-68
2022/04/19 00:55:31;;;;;;;0.00;0.00;;;11.20;59.60;;;;;;4152862;28;20060;-69
2022/04/19 00:57:56;;;;;;;0.00;0.00;;;11.20;59.70;;;;;;4154092;28;20108;-71
2022/04/19 01:00:21;;;;;;;0.00;0.00;;;11.10;59.80;;;;;;4155841;28;20076;-72
2022/04/19 01:02:56;;;;;;;0.00;0.00;;;11.10;60.00;;;;;;4156139;28;20072;-70
2022/04/19 01:05:21;;;;;;;0.00;0.00;;;11.10;60.30;;;;;;4153826;28;20070;-72
2022/04/19 01:07:46;;;;;;;0.00;0.00;;;11.10;60.20;;;;;;4157977;28;20061;-70
2022/04/19 01:10:12;;;;;;;0.00;0.00;;;11.10;60.30;;;;;;4157414;28;20072;-69
2022/04/19 01:15:16;;;;;;;0.00;0.00;;;11.00;60.70;;;;;;4156217;28;20073;-71
2022/04/19 01:18:02;;;;;;;0.00;0.00;;;10.90;60.70;;;;;;4153284;28;20042;-71
2022/04/19 01:20:28;;;;;;;;;;;11.00;60.80;;;;;;4152268;28;20444;-68
2022/04/19 01:22:56;;;;;;;0.00;0.00;;;10.90;60.80;;;;;;4151766;28;19931;-69
2022/04/19 01:25:23;;;;;;;0.00;0.00;;;10.90;60.80;;;;;;4138612;28;20096;-69
2022/04/19 01:27:51;;;;;;;0.00;0.00;;;11.00;61.10;;;;;;4151492;28;20107;-70
2022/04/19 01:30:18;;;;;;;0.00;0.00;;;11.00;61.30;;;;;;4151417;28;20088;-68
2022/04/19 01:32:44;;;;;;;0.00;0.00;;;10.90;61.50;;;;;;4151000;28;20054;-70
2022/04/19 01:35:08;;;;;;;0.00;0.00;;;10.90;61.90;;;;;;4151419;28;20385;-72
2022/04/19 01:37:34;;;;;;;0.00;0.00;;;10.90;62.00;;;;;;4151353;28;20125;-70
2022/04/19 01:40:18;;;;;;;0.00;0.00;;;10.90;62.20;;;;;;4151783;28;20456;-70
2022/04/19 01:42:48;;;;;;;0.00;0.00;;;10.90;62.20;;;;;;4137441;28;20120;-72
2022/04/19 01:45:10;;;;;;;0.00;0.00;;;10.80;62.20;;;;;;4137617;28;20536;-69
2022/04/19 01:47:34;;;;;;;0.00;0.00;;;10.80;62.40;;;;;;4150972;28;20049;-71
2022/04/19 01:49:56;;;;;;;0.00;0.00;;;10.70;62.70;;;;;;4164900;28;20052;-69
2022/04/19 01:52:18;;;;;;;0.00;0.00;;;10.60;63.30;;;;;;4151167;28;20034;-68
2022/04/19 01:54:48;;;;;;;0.00;0.00;;;10.50;63.80;;;;;;4151050;28;20111;-71
2022/04/19 01:57:20;;;;;;;0.00;0.00;;;10.40;64.40;;;;;;4151102;28;20100;-70
2022/04/19 01:59:47;;;;;;;0.00;0.00;;;10.40;64.40;;;;;;4150895;28;20344;-71
2022/04/19 02:02:15;;;;;;;0.00;0.00;;;10.40;64.30;;;;;;4150866;28;20042;-71
2022/04/19 02:04:39;;;;;;;0.00;0.00;;;10.50;64.40;;;;;;4150674;28;20034;-69
2022/04/19 02:07:04;;;;;;;0.00;0.00;;;10.50;64.40;;;;;;4164651;28;20041;-69
2022/04/19 02:09:29;;;;;;;0.00;0.00;;;10.50;64.40;;;;;;4150945;28;20061;-69
2022/04/19 02:11:51;;;;;;;0.00;0.00;;;10.50;64.40;;;;;;4150870;28;20038;-69
2022/04/19 02:14:36;;;;;;;0.00;0.00;;;10.60;64.20;;;;;;4153981;28;20088;-69
2022/04/19 02:16:58;;;;;;;0.00;0.00;;;10.50;64.10;;;;;;4149535;28;20065;-74
2022/04/19 02:19:23;;;;;;;0.00;0.00;;;10.50;64.10;;;;;;4150779;28;20050;-71
2022/04/19 02:21:45;;;;;;;0.00;0.00;;;10.50;64.10;;;;;;4137304;28;20049;-70
2022/04/19 02:24:09;;;;;;;0.00;0.00;;;10.40;64.20;;;;;;4150539;28;20080;-70
2022/04/19 02:26:32;;;;;;;0.00;0.00;;;10.40;64.00;;;;;;4150598;28;20052;-70
2022/04/19 02:28:55;;;;;;;0.00;0.00;;;10.40;64.00;;;;;;4150201;28;20112;-71
2022/04/19 02:31:30;;;;;;;0.00;0.00;;;10.40;63.80;;;;;;4150605;28;20129;-72
2022/04/19 02:33:58;;;;;;;0.00;0.00;;;10.30;63.50;;;;;;4164154;28;20369;-71
2022/04/19 02:36:21;;;;;;;0.00;0.00;;;10.30;63.50;;;;;;4150564;28;20054;-70
2022/04/19 02:38:45;;;;;;;0.00;0.00;;;10.30;63.50;;;;;;4136518;28;20069;-69
2022/04/19 02:41:10;;;;;;;0.00;0.00;;;10.20;63.50;;;;;;4150817;28;20061;-72
2022/04/19 02:43:35;;;;;;;0.00;0.00;;;10.20;63.50;;;;;;4150290;28;20080;-69
2022/04/19 02:45:59;;;;;;;0.00;0.00;;;10.30;63.60;;;;;;4136909;28;20429;-68
2022/04/19 02:48:30;;;;;;;0.00;0.00;;;10.20;63.60;;;;;;4136632;28;20046;-70
2022/04/19 02:50:53;;;;;;;0.00;0.00;;;10.00;63.80;;;;;;4163994;28;20048;-71
2022/04/19 02:53:17;;;;;;;0.00;0.00;;;10.00;63.80;;;;;;4136460;28;20050;-70
2022/04/19 02:55:41;;;;;;;0.00;0.00;;;10.00;63.80;;;;;;4177923;28;20082;-68
2022/04/19 02:58:03;;;;;;;0.00;0.00;;;10.00;63.60;;;;;;4150592;28;20465;-75
2022/04/19 03:00:26;;;;;;;0.00;0.00;;;10.00;63.60;;;;;;4149982;28;20057;-70
2022/04/19 03:02:50;;;;;;;0.00;0.00;;;10.10;63.60;;;;;;4150048;28;20053;-73
2022/04/19 03:05:16;;;;;;;0.00;0.00;;;10.10;63.60;;;;;;4150057;28;20049;-69
2022/04/19 03:07:39;;;;;;;0.00;0.00;;;10.00;63.60;;;;;;4150214;28;20050;-69
2022/04/19 03:10:03;;;;;;;0.00;0.00;;;10.00;63.80;;;;;;4150337;28;20041;-69
2022/04/19 03:12:25;;;;;;;0.00;0.00;;;10.00;63.80;;;;;;4150109;28;20144;-71
2022/04/19 03:14:58;;;;;;;0.00;0.00;;;10.00;64.00;;;;;;4123959;28;20105;-70
2022/04/19 03:17:23;;;;;;;0.00;0.00;;;10.00;63.90;;;;;;4150148;28;20053;-72
2022/04/19 03:19:48;;;;;;;0.00;0.00;;;10.00;63.90;;;;;;4136359;28;20117;-70
2022/04/19 03:22:10;;;;;;;0.00;0.00;;;10.00;63.80;;;;;;4150314;28;20087;-70
2022/04/19 03:30:19;;;;;;;0.00;0.00;;;9.90;63.70;;;;;;4163645;28;20045;-72
2022/04/19 03:32:44;;;;;;;0.00;0.00;;;9.90;63.70;;;;;;4136087;28;20085;-74
2022/04/19 03:35:07;;;;;;;0.00;0.00;;;9.90;63.90;;;;;;4150038;28;20089;-72
2022/04/19 03:37:31;;;;;;;0.00;0.00;;;9.90;64.40;;;;;;4150237;28;20069;-69
2022/04/19 03:39:56;;;;;;;0.00;0.00;;;9.80;64.90;;;;;;4163644;28;20053;-71
2022/04/19 03:42:21;;;;;;;0.00;0.00;;;9.80;65.40;;;;;;4147251;28;20042;-69
2022/04/19 03:44:43;;;;;;;0.00;0.00;;;9.80;65.70;;;;;;4135988;28;20058;-71
2022/04/19 03:47:10;;;;;;;0.00;0.00;;;9.80;65.90;;;;;;4163762;28;20050;-69
2022/04/19 03:49:34;;;;;;;0.00;0.00;;;9.80;66.00;;;;;;4136114;28;20422;-72
2022/04/19 03:52:03;;;;;;;0.00;0.00;;;9.80;66.20;;;;;;4149900;28;20603;-71
2022/04/19 03:54:34;;;;;;;0.00;0.00;;;9.90;66.40;;;;;;4149295;28;20047;-72
2022/04/19 03:56:57;;;;;;;0.00;0.00;;;9.80;66.60;;;;;;4149261;28;20081;-71
2022/04/19 03:59:22;;;;;;;0.00;0.00;;;9.70;66.70;;;;;;4149438;28;20050;-70
2022/04/19 04:01:45;;;;;;;0.00;0.00;;;9.60;67.00;;;;;;4150071;28;20484;-71
2022/04/19 04:04:08;;;;;;;0.00;0.00;;;9.60;67.30;;;;;;4136770;28;20057;-69
2022/04/19 04:06:36;;;;;;;0.00;0.00;;;9.60;67.40;;;;;;4152806;28;20562;-74
2022/04/19 04:09:00;;;;;;;0.00;0.00;;;9.60;67.50;;;;;;4139097;28;20050;-69
2022/04/19 04:11:24;;;;;;;0.00;0.00;;;9.60;67.60;;;;;;4180575;28;20037;-71
2022/04/19 04:14:02;;;;;;;0.00;0.00;;;9.60;67.60;;;;;;4135307;28;20052;-71
2022/04/19 04:16:27;;;;;;;0.00;0.00;;;9.60;67.60;;;;;;4152841;28;20050;-72
2022/04/19 04:18:49;;;;;;;0.00;0.00;;;9.50;67.70;;;;;;4152610;28;20131;-72
2022/04/19 04:21:13;;;;;;;0.00;0.00;;;9.50;67.80;;;;;;4152882;28;20125;-70
2022/04/19 04:23:35;;;;;;;0.00;0.00;;;9.50;68.10;;;;;;4153096;28;20065;-70
2022/04/19 04:26:06;;;;;;;0.00;0.00;;;9.50;68.30;;;;;;4152653;28;20073;-69
2022/04/19 04:28:30;;;;;;;0.00;0.00;;;9.50;68.40;;;;;;4152876;28;20519;-68
2022/04/19 04:30:54;;;;;;;0.00;0.00;;;9.50;68.60;;;;;;4152489;28;20103;-71
2022/04/19 04:33:21;;;;;;;0.00;0.00;;;9.60;68.60;;;;;;4166673;28;20136;-72
2022/04/19 04:35:46;;;;;;;0.00;0.00;;;9.50;68.60;;;;;;4139791;28;20053;-70
2022/04/19 04:38:11;;;;;;;0.00;0.00;;;9.50;68.60;;;;;;4166365;28;20053;-68
2022/04/19 04:40:37;;;;;;;0.00;0.00;;;9.50;68.70;;;;;;4138842;28;20406;-73
2022/04/19 04:43:05;;;;;;;0.00;0.00;;;9.40;68.80;;;;;;4138833;28;20039;-70
2022/04/19 04:45:27;;;;;;;0.00;0.00;;;9.40;69.00;;;;;;4139367;28;20357;-72
2022/04/19 04:50:32;;;;;;;0.00;0.00;;;9.40;69.30;;;;;;4152459;28;20480;-71
2022/04/19 04:52:58;;;;;;;0.00;0.00;;;9.40;69.20;;;;;;4152043;28;20054;-71
2022/04/19 04:55:23;;;;;;;0.00;0.00;;;9.40;69.30;;;;;;4139040;28;20046;-69
2022/04/19 04:57:51;;;;;;;0.00;0.00;;;9.30;69.30;;;;;;4152247;28;20060;-69
2022/04/19 05:00:16;;;;;;;0.00;0.00;;;9.40;69.30;;;;;;4152084;28;20053;-69
2022/04/19 05:02:50;;;;;;;0.00;0.00;;;9.40;69.30;;;;;;4165662;28;20061;-71
2022/04/19 05:05:13;;;;;;;0.00;0.00;;;9.40;69.40;;;;;;4152180;28;20054;-70
2022/04/19 05:07:40;;;;;;;0.00;0.00;;;9.40;69.40;;;;;;4152542;28;20045;-70
2022/04/19 05:10:03;;;;;;;0.00;0.00;;;9.50;69.60;;;;;;4166222;28;20045;-71
2022/04/19 05:12:27;;;;;;;0.00;0.00;;;9.50;69.70;;;;;;4138535;28;20054;-72
2022/04/19 05:14:51;;;;;;;0.00;0.00;;;9.50;69.80;;;;;;4151949;28;20068;-68
2022/04/19 05:17:15;;;;;;;0.00;0.00;;;9.60;69.90;;;;;;4124864;28;20031;-72
2022/04/19 05:19:41;;;;;;;0.00;0.00;;;9.60;69.90;;;;;;4152234;28;20073;-70
2022/04/19 05:22:04;;;;;;;0.00;0.00;;;9.60;70.10;;;;;;4152100;28;20051;-72
2022/04/19 05:24:29;;;;;;;0.00;0.00;;;9.70;70.10;;;;;;4125123;28;20133;-68
2022/04/19 05:26:53;;;;;;;0.00;0.00;;;9.80;70.00;;;;;;4165300;28;20038;-70
2022/04/19 05:29:18;;;;;;;0.00;0.00;;;9.90;70.20;;;;;;4140673;28;20073;-70
2022/04/19 05:31:41;;;;;;;0.00;0.00;;;10.00;70.10;;;;;;4140187;28;20042;-69
2022/04/19 05:34:07;;;;;;;0.00;0.00;;;10.10;70.00;;;;;;4139903;28;20046;-68
2022/04/19 05:36:33;;;;;;;0.00;0.00;;;10.20;69.80;;;;;;4138485;28;20393;-70
2022/04/19 05:38:55;;;;;;;0.00;0.00;;;10.30;69.60;;;;;;4137813;28;20046;-72
2022/04/19 05:41:20;;;;;;;0.00;0.00;;;10.40;69.30;;;;;;4151608;28;20050;-67
2022/04/19 05:43:46;;;;;;;0.00;0.00;;;10.50;69.60;;;;;;4152157;28;20049;-71
2022/04/19 05:46:12;;;;;;;0.00;0.00;;;10.60;68.40;;;;;;4151664;28;20112;-69
2022/04/19 05:48:35;;;;;;;0.00;0.00;;;10.80;68.10;;;;;;4151850;28;20047;-71
2022/04/19 05:50:59;;;;;;;0.00;0.00;;;10.80;67.80;;;;;;4151211;28;20365;-70
2022/04/19 05:53:21;;;;;;;0.00;0.00;;;10.90;67.60;;;;;;4137811;28;20150;-72
2022/04/19 05:55:44;;;;;;;0.00;0.00;;;11.00;67.70;;;;;;4165294;28;20084;-68
2022/04/19 05:58:09;;;;;;;0.00;0.00;;;11.20;67.70;;;;;;4151641;28;20042;-71
2022/04/19 06:00:34;;;;;;;0.00;0.00;;;11.40;66.50;;;;;;4163849;28;20544;-72
2022/04/19 06:05:39;;;;;;;0.00;0.00;;;11.60;64.80;;;;;;4164947;28;20435;-70
2022/04/19 06:08:02;;;;;;;0.00;0.00;;;11.50;64.90;;;;;;4151704;28;20064;-70
2022/04/19 06:10:24;;;;;;;0.00;0.00;;;11.60;65.00;;;;;;4164924;28;20053;-69
2022/04/19 06:12:47;;;;;;;0.00;0.00;;;11.60;65.10;;;;;;4164761;28;20041;-71
2022/04/19 06:15:13;;;;;;;0.00;0.00;;;11.70;66.00;;;;;;4151185;28;20057;-71
2022/04/19 06:17:38;;;;;;;0.00;0.00;;;11.60;67.10;;;;;;4164107;28;20041;-68
2022/04/19 06:20:12;;;;;;;0.00;0.00;;;11.80;67.60;;;;;;4149440;28;20535;-70
2022/04/19 06:22:36;;;;;;;0.00;0.00;;;12.10;67.30;;;;;;4136358;28;20042;-72
2022/04/19 06:25:05;;;;;;;0.00;0.00;;;12.30;67.00;;;;;;4147960;28;20550;-72
2022/04/19 06:27:29;;;;;;;0.00;0.00;;;12.20;66.60;;;;;;4134539;28;20050;-72
2022/04/19 06:29:52;;;;;;;0.00;0.00;;;11.90;67.00;;;;;;4143525;28;20046;-72
2022/04/19 06:32:15;;;;;;;0.00;0.00;;;11.60;68.80;;;;;;4121505;28;20398;-70
2022/04/19 06:34:41;;;;;;;0.00;0.00;;;11.80;68.40;;;;;;4148125;28;20072;-69
2022/04/19 06:37:12;;;;;;;0.00;0.00;;;11.80;68.30;;;;;;4148395;28;20056;-71
2022/04/19 06:39:39;;;;;;;0.00;0.00;;;11.90;69.00;;;;;;4148164;28;20053;-72
2022/04/19 06:42:02;;;;;;;0.00;0.00;;;11.80;69.20;;;;;;4134490;28;20038;-71
2022/04/19 06:44:44;;;;;;;0.00;0.00;;;11.80;69.00;;;;;;4134229;28;20129;-71
2022/04/19 06:47:16;;;;;;;0.00;0.00;;;12.20;69.10;;;;;;4148372;28;20077;-72
2022/04/19 06:49:38;;;;;;;0.00;0.00;;;12.60;68.00;;;;;;4134460;28;20039;-70
2022/04/19 06:52:05;;;;;;;0.00;0.00;;;12.50;67.70;;;;;;4148080;28;20042;-70
2022/04/19 06:54:27;;;;;;;0.00;0.00;;;12.50;68.70;;;;;;4134255;28;20042;-68
2022/04/19 06:56:58;;;;;;;0.00;0.00;;;12.80;68.20;;;;;;4148406;28;20080;-69
2022/04/19 06:59:21;;;;;;;0.00;0.00;;;13.00;67.70;;;;;;4134149;28;20077;-68
2022/04/19 07:01:46;;;;;;;0.00;0.00;;;12.70;67.90;;;;;;4133834;28;20073;-71
2022/04/19 07:04:30;;;;;;;0.00;0.00;;;12.50;68.90;;;;;;4140881;28;20080;-68
2022/04/19 07:07:02;;;;;;;0.00;0.00;;;12.10;69.90;;;;;;4147449;28;20050;-71
2022/04/19 07:09:27;;;;;;;0.00;0.00;;;12.30;70.70;;;;;;4134120;28;20133;-69
2022/04/19 07:11:53;;;;;;;0.00;0.00;;;12.60;69.60;;;;;;4147809;28;20409;-68
2022/04/19 07:14:18;;;;;;;0.00;0.00;;;12.80;68.70;;;;;;4134202;28;20054;-71
2022/04/19 07:16:52;;;;;;;0.00;0.00;;;12.50;69.50;;;;;;4135380;28;20392;-69
2022/04/19 07:19:15;;;;;;;0.00;0.00;;;12.80;68.90;;;;;;4161225;28;20057;-70
2022/04/19 07:28:01;;;;;;;0.00;0.00;;;13.70;66.10;;;;;;4133124;28;20054;-72
2022/04/19 07:30:33;;;;;;;0.00;0.00;;;14.00;64.90;;;;;;4121395;28;20047;-69
2022/04/19 07:32:59;;;;;;;0.00;0.00;;;13.60;63.80;;;;;;4147079;28;20049;-69
2022/04/19 07:35:24;;;;;;;0.00;0.00;;;13.00;65.50;;;;;;4133973;28;20046;-70
2022/04/19 07:37:49;;;;;;;0.00;0.00;;;13.00;65.90;;;;;;4133962;28;20046;-68
2022/04/19 07:40:16;;;;;;;0.00;0.00;;;13.00;66.30;;;;;;4135988;28;20129;-72
2022/04/19 07:42:41;;;;;;;0.00;0.00;;;13.10;65.60;;;;;;4136523;28;20046;-70
2022/04/19 07:45:06;;;;;;;0.00;0.00;;;12.70;65.90;;;;;;4150897;28;20045;-71
2022/04/19 07:47:32;;;;;;;0.00;0.00;;;13.10;66.10;;;;;;4137111;28;20073;-72
2022/04/19 07:49:57;;;;;;;0.00;0.00;;;13.70;65.50;;;;;;4164226;28;20049;-69
2022/04/19 07:52:19;;;;;;;0.00;0.00;;;14.00;63.20;;;;;;4123480;28;20481;-68
2022/04/19 07:54:42;;;;;;;0.00;0.00;;;13.40;64.40;;;;;;4150197;28;20050;-71
2022/04/19 07:57:04;;;;;;;0.00;0.00;;;13.30;65.70;;;;;;4150611;28;20042;-69
2022/04/19 07:59:28;;;;;;;0.00;0.00;;;13.80;65.60;;;;;;4136448;28;20097;-69
2022/04/19 08:01:50;;;;;;;0.00;0.00;;;14.20;64.40;;;;;;4136732;28;20046;-69
2022/04/19 08:04:17;;;;;;;0.00;0.00;;;14.50;63.90;;;;;;4123003;28;20470;-71
2022/04/19 08:06:44;;;;;;;0.00;0.00;;;14.20;63.50;;;;;;4150377;28;20042;-70
2022/04/19 08:09:08;;;;;;;0.00;0.00;;;14.30;63.70;;;;;;4150390;28;20042;-71
2022/04/19 08:11:35;;;;;;;0.00;0.00;;;14.00;62.80;;;;;;4136619;28;20133;-71
2022/04/19 08:13:57;;;;;;;0.00;0.00;;;13.80;64.10;;;;;;4136591;28;20124;-71
2022/04/19 08:16:19;;;;;;;0.00;0.00;;;13.90;64.10;;;;;;4163972;28;20381;-70
2022/04/19 08:18:42;;;;;;;0.00;0.00;;;13.80;63.10;;;;;;4149613;28;20476;-69
2022/04/19 08:21:08;;;;;;;0.00;0.00;;;13.60;63.70;;;;;;4163952;28;20400;-69
2022/04/19 08:23:33;;;;;;;0.00;0.00;;;13.50;62.30;;;;;;4150196;28;20045;-69
2022/04/19 08:26:00;;;;;;;0.00;0.00;;;13.60;62.80;;;;;;4136272;28;20056;-69
2022/04/19 08:28:25;;;;;;;0.00;0.00;;;13.90;63.10;;;;;;4136387;28;20490;-69
2022/04/19 08:30:47;;;;;;;0.00;0.00;;;14.10;61.80;;;;;;4149400;28;20046;-72
2022/04/19 08:33:15;;;;;;;0.00;0.00;;;14.10;61.50;;;;;;4163681;28;20104;-70
2022/04/19 08:35:40;;;;;;;0.00;0.00;;;14.20;60.70;;;;;;4122763;28;20108;-71
2022/04/19 08:38:02;;;;;;;0.00;0.00;;;14.50;59.50;;;;;;4149887;28;20058;-71
2022/04/19 08:40:30;;;;;;;0.00;0.00;;;14.50;58.60;;;;;;4147940;28;20049;-72
2022/04/19 08:42:59;;;;;;;0.00;0.00;;;14.60;57.60;;;;;;4149447;28;20136;-69
2022/04/19 08:45:26;;;;;;;0.00;0.00;;;14.50;57.30;;;;;;4136085;28;20520;-69
2022/04/19 08:47:48;;;;;;;0.00;0.00;;;14.30;57.30;;;;;;4136060;28;20078;-68
2022/04/19 08:50:18;;;;;;;0.00;0.00;;;14.10;57.00;;;;;;4163383;28;20041;-69
2022/04/19 08:52:42;;;;;;;0.00;0.00;;;14.20;57.30;;;;;;4135632;28;20047;-69
2022/04/19 08:57:49;;;;;;;0.00;0.00;;;14.40;55.70;;;;;;4163372;28;20064;-68
2022/04/19 09:00:17;;;;;;;0.00;0.00;;;14.50;55.40;;;;;;4149183;28;20049;-68
2022/04/19 09:02:45;;;;;;;0.00;0.00;;;14.50;57.30;;;;;;4122002;28;20385;-68
2022/04/19 09:05:14;;;;;;;0.00;0.00;;;14.70;57.80;;;;;;4149438;28;20104;-68
2022/04/19 09:07:37;;;;;;;0.00;0.00;;;14.80;57.10;;;;;;4149586;28;20389;-73
2022/04/19 09:10:00;;;;;;;0.00;0.00;;;14.90;56.10;;;;;;4149271;28;20045;-71
2022/04/19 09:12:22;;;;;;;0.00;0.00;;;15.10;57.10;;;;;;4149322;28;20050;-72
2022/04/19 09:15:06;;;;;;;0.00;0.00;;;15.20;57.20;;;;;;4149098;28;20388;-68
2022/04/19 09:17:43;;;;;;;0.00;0.00;;;15.40;56.60;;;;;;4135918;28;20053;-69
2022/04/19 09:20:18;;;;;;;0.00;0.00;;;15.60;56.70;;;;;;4135413;28;20057;-70
2022/04/19 09:22:44;;;;;;;0.00;0.00;;;16.00;55.60;;;;;;4148728;28;20136;-71
2022/04/19 09:25:26;;;;;;;0.00;0.00;;;16.30;54.80;;;;;;4148983;28;20069;-70
2022/04/19 09:27:49;;;;;;;0.00;0.00;;;16.80;53.90;;;;;;4135556;28;20050;-68
2022/04/19 09:30:24;;;;;;;0.00;0.00;;;17.00;53.60;;;;;;4148899;28;20046;-68
2022/04/19 09:33:05;;;;;;;0.00;0.00;;;17.20;53.30;;;;;;4134789;28;20145;-71
2022/04/19 09:35:30;;;;;;;0.00;0.00;;;17.40;51.40;;;;;;4149044;28;20055;-70
2022/04/19 09:37:55;;;;;;;0.00;0.00;;;16.70;49.30;;;;;;4135184;28;20050;-71
2022/04/19 09:40:26;;;;;;;0.00;0.00;;;16.30;51.10;;;;;;4162761;28;20460;-69
2022/04/19 09:42:56;;;;;;;0.00;0.00;;;16.50;50.50;;;;;;4148329;28;20554;-72
2022/04/19 09:46:02;;;;;;;0.00;0.00;;;16.70;50.50;;;;;;4135587;28;20045;-69
2022/04/19 09:48:31;;;;;;;0.00;0.00;;;17.10;50.40;;;;;;4162498;28;20049;-70
2022/04/19 09:51:03;;;;;;;0.00;0.00;;;17.10;50.20;;;;;;4162324;28;20108;-70
2022/04/19 09:53:27;;;;;;;0.00;0.00;;;17.30;49.70;;;;;;4148551;28;20058;-69
2022/04/19 09:55:51;;;;;;;0.00;0.00;;;17.30;50.10;;;;;;4162424;28;20439;-70
2022/04/19 09:58:15;;;;;;;0.00;0.00;;;17.40;50.00;;;;;;4145052;28;20038;-69
2022/04/19 10:00:37;;;;;;;0.00;0.00;;;17.30;50.60;;;;;;4148204;28;20148;-71
2022/04/19 10:08:23;;;;;;;0.00;0.00;;;17.50;50.20;;;;;;4123876;28;19926;-70
2022/04/19 10:10:56;;;;;;;0.00;0.00;;;17.90;50.00;;;;;;4147970;28;20476;-70
2022/04/19 10:13:24;;;;;;;0.00;0.00;;;18.10;49.20;;;;;;4134499;28;20129;-73
2022/04/19 10:15:49;;;;;;;0.00;0.00;;;17.90;48.60;;;;;;4121300;28;20046;-68
2022/04/19 10:18:14;;;;;;;0.00;0.00;;;17.60;50.50;;;;;;4144340;28;20489;-71
2022/04/19 10:20:53;;;;;;;0.00;0.00;;;17.80;51.20;;;;;;4134623;28;20548;-70
2022/04/19 10:23:20;;;;;;;0.00;0.00;;;18.20;50.90;;;;;;4134517;28;20456;-70
2022/04/19 10:25:48;;;;;;;0.00;0.00;;;18.40;50.60;;;;;;4161750;28;20053;-71
2022/04/19 10:28:26;;;;;;;0.00;0.00;;;18.30;50.20;;;;;;4161901;28;20087;-72
2022/04/19 10:30:53;;;;;;;0.00;0.00;;;18.40;51.00;;;;;;4134043;28;20105;-72
2022/04/19 10:33:52;;;;;;;0.00;0.00;;;18.50;50.70;;;;;;4147981;28;20197;-72
2022/04/19 10:36:21;;;;;;;0.00;0.00;;;18.70;50.50;;;;;;4135739;28;20054;-72
2022/04/19 10:38:47;;;;;;;0.00;0.00;;;18.80;50.70;;;;;;4122138;28;20073;-72
2022/04/19 10:41:44;;;;;;;0.00;0.00;;;18.70;49.40;;;;;;4147540;28;20045;-73
2022/04/19 10:44:25;;;;;;;0.00;0.00;;;18.60;48.60;;;;;;4144246;28;20567;-73
2022/04/19 10:47:13;;;;;;;0.00;0.00;;;18.70;49.20;;;;;;4147525;28;20133;-72
2022/04/19 10:50:02;;;;;;;0.00;0.00;;;18.80;48.60;;;;;;4147682;28;20041;-74
2022/04/19 10:52:36;;;;;;;0.00;0.00;;;19.00;48.70;;;;;;4161582;28;20051;-74
2022/04/19 10:55:07;;;;;;;0.00;0.00;;;19.20;48.90;;;;;;4161014;28;20427;-74
2022/04/19 11:00:31;;;;;;;0.00;0.00;;;19.40;48.10;;;;;;4161187;28;20045;-71
2022/04/19 11:03:26;;;;;;;0.00;0.00;;;19.50;47.60;;;;;;4135493;28;20038;-69
2022/04/19 11:05:51;;;;;;;0.00;0.00;;;19.50;47.40;;;;;;4147497;28;20061;-72
2022/04/19 11:08:30;;;;;;;0.00;0.00;;;19.50;46.80;;;;;;4147750;28;20041;-69
2022/04/19 11:10:56;;;;;;;0.00;0.00;;;19.50;46.70;;;;;;4147164;28;20062;-73
2022/04/19 11:13:26;;;;;;;0.00;0.00;;;19.50;46.40;;;;;;4147836;28;20046;-69
2022/04/19 11:16:01;;;;;;;0.00;0.00;;;19.60;45.70;;;;;;4164838;28;20103;-71
2022/04/19 11:18:28;;;;;;;0.00;0.00;;;19.70;45.90;;;;;;4148736;28;20483;-71
2022/04/19 11:20:56;;;;;;;0.00;0.00;;;19.70;45.60;;;;;;4150589;28;20049;-71
2022/04/19 11:23:19;;;;;;;0.00;0.00;;;19.90;45.30;;;;;;4165179;28;20075;-70
2022/04/19 11:25:43;;;;;;;0.00;0.00;;;19.90;45.10;;;;;;4138133;28;20172;-73
2022/04/19 11:28:08;;;;;;;0.00;0.00;;;20.00;44.20;;;;;;4151040;28;20093;-72
2022/04/19 11:30:33;;;;;;;0.00;0.00;;;20.00;43.60;;;;;;4164649;28;20042;-70
2022/04/19 11:32:58;;;;;;;0.00;0.00;;;20.00;41.70;;;;;;4150564;28;20445;-72
2022/04/19 11:35:24;;;;;;;0.00;0.00;;;19.90;42.40;;;;;;4150929;28;20460;-71
2022/04/19 11:37:49;;;;;;;0.00;0.00;;;20.00;41.90;;;;;;4153213;28;20042;-71
2022/04/19 11:48:50;;;;;;;0.00;0.00;;;19.60;42.80;;;;;;4166830;28;20053;-70
2022/04/19 11:51:16;;;;;;;0.00;0.00;;;19.60;42.50;;;;;;4167520;28;20042;-70
2022/04/19 11:53:38;;;;;;;0.00;0.00;;;19.70;41.50;;;;;;4167798;28;20045;-69
2022/04/19 11:56:01;;;;;;;0.00;0.00;;;19.80;40.90;;;;;;4154294;28;20037;-69
2022/04/19 11:58:23;;;;;;;0.00;0.00;;;19.90;41.20;;;;;;4153587;28;20084;-72
2022/04/19 12:00:58;;;;;;;0.00;0.00;;;19.80;41.40;;;;;;4167404;28;20049;-68
2022/04/19 12:03:24;;;;;;;0.00;0.00;;;20.00;41.70;;;;;;4169486;28;20365;-70
2022/04/19 12:05:46;;;;;;;0.00;0.00;;;19.80;41.30;;;;;;4157433;28;20068;-70
2022/04/19 12:08:09;;;;;;;0.00;0.00;;;19.70;41.80;;;;;;4158392;28;20049;-72
2022/04/19 12:10:31;;;;;;;0.00;0.00;;;19.80;41.40;;;;;;4155401;28;20120;-69
2022/04/19 12:12:56;;;;;;;0.00;0.00;;;19.50;41.50;;;;;;4153449;28;20073;-71
2022/04/19 12:15:43;;;;;;;0.00;0.00;;;19.50;42.00;;;;;;4140544;28;20046;-72
2022/04/19 12:18:08;;;;;;;0.00;0.00;;;19.50;42.10;;;;;;4163375;28;20075;-70
2022/04/19 12:20:49;;;;;;;0.00;0.00;;;19.30;42.50;;;;;;4169495;28;20068;-70
2022/04/19 12:23:21;;;;;;;0.00;0.00;;;19.70;43.70;;;;;;4183127;28;20049;-69
2022/04/19 12:26:06;;;;;;;0.00;0.00;;;20.00;43.80;;;;;;4168235;28;20041;-71
2022/04/19 12:28:34;;;;;;;0.00;0.00;;;20.30;44.20;;;;;;4152585;28;20121;-70
2022/04/19 12:30:56;;;;;;;0.00;0.00;;;20.60;44.40;;;;;;4138873;28;20050;-72
2022/04/19 12:33:19;;;;;;;0.00;0.00;;;20.80;44.10;;;;;;4166205;28;20141;-71
2022/04/19 12:35:53;;;;;;;0.00;0.00;;;21.00;43.20;;;;;;4125149;28;20053;-70
2022/04/19 12:38:20;;;;;;;0.00;0.00;;;21.00;43.20;;;;;;4152460;28;20042;-70
2022/04/19 12:40:46;;;;;;;0.00;0.00;;;21.10;42.40;;;;;;4166100;28;20052;-70
2022/04/19 12:43:10;;;;;;;0.00;0.00;;;21.10;43.10;;;;;;4166076;28;20049;-72
2022/04/19 12:45:37;;;;;;;0.00;0.00;;;21.20;43.50;;;;;;4165859;28;20080;-71
2022/04/19 12:48:00;;;;;;;0.00;0.00;;;21.20;43.10;;;;;;4146637;28;20144;-72
2022/04/19 12:50:22;;;;;;;0.00;0.00;;;21.20;42.70;;;;;;4165842;28;20046;-71
2022/04/19 12:52:44;;;;;;;0.00;0.00;;;21.20;41.70;;;;;;4152198;28;20139;-71
2022/04/19 12:55:09;;;;;;;0.00;0.00;;;21.20;42.20;;;;;;4166097;28;20041;-69
2022/04/19 12:57:35;;;;;;;0.00;0.00;;;21.40;42.80;;;;;;4165755;28;20045;-71
2022/04/19 12:59:57;;;;;;;0.00;0.00;;;21.40;42.00;;;;;;4151724;28;20057;-70
2022/04/19 13:02:22;;;;;;;0.00;0.00;;;21.50;41.30;;;;;;4165773;28;20074;-69
2022/04/19 13:04:50;;;;;;;0.00;0.00;;;21.50;41.30;;;;;;4165606;28;20049;-68
2022/04/19 13:12:36;;;;;;;0.00;0.00;;;21.60;41.80;;;;;;4165702;28;20444;-69
2022/04/19 13:15:05;;;;;;;0.00;0.00;;;21.60;41.00;;;;;;4179198;28;20037;-71
2022/04/19 13:17:41;;;;;;;0.00;0.00;;;21.60;41.20;;;;;;4151766;28;20117;-71
2022/04/19 13:20:07;;;;;;;0.00;0.00;;;21.50;41.60;;;;;;4164103;28;20105;-70
2022/04/19 13:22:29;;;;;;;0.00;0.00;;;21.60;41.30;;;;;;4157097;28;20053;-69
2022/04/19 13:24:53;;;;;;;0.00;0.00;;;21.70;40.30;;;;;;4164899;28;20048;-76
2022/04/19 13:27:20;;;;;;;0.00;0.00;;;21.70;40.00;;;;;;4165175;28;20056;-69
2022/04/19 13:29:45;;;;;;;0.00;0.00;;;21.70;39.30;;;;;;4124141;28;20077;-70